Time;durP1;ratioP1;P1;durP2;ratioP2;P2;SDS_P1;SDS_P2;PMS_P1;PMS_P2;Temp;Humidity;BMP_temperature;BMP_pressure;BME280_temperature;BME280_humidity;BME280_pressure;Samples;Min_cycle;Max_cycle;Signal;HPM_P1;HPM_P2
2021/11/02 00:00:27;;;;;;;6.30;2.97;;;;;;;4.99;100.00;99917.53;5202649;28;20030;-73
2021/11/02 00:02:58;;;;;;;7.63;3.00;;;;;;;4.96;100.00;99917.81;5202705;28;20033;-74
2021/11/02 00:05:30;;;;;;;9.35;2.80;;;;;;;4.93;100.00;99918.97;5202477;28;20026;-73
2021/11/02 00:08:00;;;;;;;7.45;3.10;;;;;;;4.89;100.00;99906.97;5202827;28;20465;-73
2021/11/02 00:10:31;;;;;;;9.15;3.35;;;;;;;4.89;100.00;99906.97;5202907;28;20017;-73
2021/11/02 00:13:03;;;;;;;6.20;3.10;;;;;;;4.88;100.00;99905.31;5202762;28;20108;-72
2021/11/02 00:15:36;;;;;;;13.18;3.17;;;;;;;4.89;100.00;99906.13;5202612;28;20025;-72
2021/11/02 00:18:08;;;;;;;9.55;3.40;;;;;;;4.88;100.00;99910.63;5201981;28;20017;-71
2021/11/02 00:20:38;;;;;;;11.10;3.80;;;;;;;4.86;100.00;99912.56;5201345;28;20584;-74
2021/11/02 00:23:09;;;;;;;6.65;3.17;;;;;;;4.90;100.00;99911.28;5202228;28;20021;-73
2021/11/02 00:25:40;;;;;;;7.15;3.70;;;;;;;4.88;100.00;99915.09;5202361;28;20021;-73
2021/11/02 00:28:10;;;;;;;8.73;3.45;;;;;;;4.83;100.00;99917.38;5202067;28;20017;-73
2021/11/02 00:30:41;;;;;;;6.60;3.33;;;;;;;4.81;100.00;99911.38;5201597;28;20028;-73
2021/11/02 00:33:11;;;;;;;8.85;3.35;;;;;;;4.80;100.00;99909.69;5202088;28;20025;-73
2021/11/02 00:35:41;;;;;;;8.00;3.20;;;;;;;4.76;100.00;99906.50;5200489;28;20025;-73
2021/11/02 00:38:12;;;;;;;8.10;3.30;;;;;;;4.75;100.00;99904.84;5202023;28;20021;-74
2021/11/02 00:40:44;;;;;;;10.40;3.67;;;;;;;4.75;100.00;99899.53;5201625;28;20022;-73
2021/11/02 00:43:14;;;;;;;12.23;3.45;;;;;;;4.73;100.00;99903.34;5202104;28;20493;-74
2021/11/02 00:45:45;;;;;;;9.38;3.22;;;;;;;4.74;100.00;99905.00;5201592;28;20029;-74
2021/11/02 00:48:23;;;;;;;17.65;3.30;;;;;;;4.75;100.00;99898.69;5201995;28;20044;-73
2021/11/02 00:50:54;;;;;;;7.95;3.53;;;;;;;4.74;100.00;99905.00;5210127;28;20534;-73
2021/11/02 00:53:25;;;;;;;8.07;3.47;;;;;;;4.71;100.00;99905.28;5201862;28;20037;-74
2021/11/02 00:55:55;;;;;;;12.02;3.53;;;;;;;4.76;100.00;99908.31;5201198;28;20366;-71
2021/11/02 00:58:26;;;;;;;11.73;3.80;;;;;;;4.73;100.00;99903.34;5201611;28;20032;-71
2021/11/02 01:00:57;;;;;;;10.32;3.70;;;;;;;4.78;100.00;99898.41;5201386;28;20032;-73
2021/11/02 01:03:27;;;;;;;11.63;4.32;;;;;;;4.81;100.00;99888.28;5201305;28;20071;-73
2021/11/02 01:05:58;;;;;;;10.00;4.40;;;;;;;4.82;100.00;99892.63;5200949;28;20037;-73
2021/11/02 01:08:28;;;;;;;9.15;4.13;;;;;;;4.76;100.00;99893.22;5201104;28;20543;-73
2021/11/02 01:10:59;;;;;;;14.32;4.80;;;;;;;4.75;100.00;99890.72;5198791;28;20376;-74
2021/11/02 01:13:29;;;;;;;9.30;4.60;;;;;;;4.77;100.00;99886.94;5191199;28;20036;-73
2021/11/02 01:16:00;;;;;;;10.55;4.78;;;;;;;4.74;100.00;99889.88;5200610;28;20025;-74
2021/11/02 01:18:31;;;;;;;13.95;4.85;;;;;;;4.76;100.00;99890.56;5201168;28;20029;-73
2021/11/02 01:21:02;;;;;;;13.43;5.25;;;;;;;4.78;100.00;99888.59;5200364;28;20257;-74
2021/11/02 01:23:33;;;;;;;10.07;5.00;;;;;;;4.79;100.00;99889.44;5201233;28;20025;-73
2021/11/02 01:26:03;;;;;;;13.48;6.32;;;;;;;4.78;100.00;99890.44;5200764;28;20087;-74
2021/11/02 01:28:34;;;;;;;19.08;6.38;;;;;;;4.76;100.00;99885.25;5201012;28;20079;-74
2021/11/02 01:31:04;;;;;;;11.10;5.85;;;;;;;4.75;100.00;99888.88;5200369;28;20018;-74
2021/11/02 01:33:36;;;;;;;12.80;5.20;;;;;;;4.75;100.00;99880.91;5200624;28;20449;-74
2021/11/02 01:36:07;;;;;;;12.57;6.22;;;;;;;4.75;100.00;99882.75;5200406;28;20159;-74
2021/11/02 01:38:39;;;;;;;12.98;6.10;;;;;;;4.72;100.00;99889.22;5200633;28;20389;-74
2021/11/02 01:41:11;;;;;;;22.02;6.55;;;;;;;4.70;100.00;99888.50;5200193;28;20049;-73
2021/11/02 01:43:41;;;;;;;12.70;5.75;;;;;;;4.73;100.00;99895.34;5200529;28;20390;-73
2021/11/02 01:46:23;;;;;;;13.88;6.00;;;;;;;4.75;100.00;99891.56;5200322;28;20044;-71
2021/11/02 01:48:56;;;;;;;15.77;6.38;;;;;;;4.73;100.00;99896.19;5198668;28;20079;-71
2021/11/02 01:51:29;;;;;;;18.20;6.45;;;;;;;4.76;100.00;99895.88;5207662;28;20058;-74
2021/11/02 01:54:00;;;;;;;14.35;6.07;;;;;;;4.78;100.00;99901.88;5186903;28;20025;-73
2021/11/02 01:56:32;;;;;;;14.02;6.35;;;;;;;4.76;100.00;99895.03;5199830;28;20033;-74
2021/11/02 01:59:03;;;;;;;14.75;6.10;;;;;;;4.82;100.00;99892.63;5200071;28;20029;-72
2021/11/02 02:01:56;;;;;;;19.02;5.72;;;;;;;4.84;100.00;99887.97;5200550;28;20101;-72
2021/11/02 02:04:34;;;;;;;12.07;5.70;;;;;;;4.82;100.00;99889.09;5200640;28;20025;-71
2021/11/02 02:07:23;;;;;;;18.30;6.00;;;;;;;4.77;100.00;99886.94;5200924;28;20036;-74
2021/11/02 02:10:15;;;;;;;17.02;5.38;;;;;;;4.77;100.00;99892.25;5200344;28;20029;-71
2021/11/02 02:13:00;;;;;;;19.15;6.45;;;;;;;4.76;100.00;99879.09;5200227;28;20025;-72
2021/11/02 02:15:52;;;;;;;15.77;7.78;;;;;;;4.73;100.00;99885.56;5200738;28;20029;-71
2021/11/02 02:18:36;;;;;;;17.70;6.20;;;;;;;4.75;100.00;99886.22;5200898;28;20108;-72
2021/11/02 02:21:10;;;;;;;16.67;5.30;;;;;;;4.76;100.00;99879.94;5199754;28;20033;-72
2021/11/02 02:24:15;;;;;;;16.67;5.88;;;;;;;4.83;100.00;99877.50;5200224;28;20021;-71
2021/11/02 02:27:03;;;;;;;13.45;5.72;;;;;;;4.85;100.00;99879.00;5200203;28;20127;-72
2021/11/02 02:29:40;;;;;;;12.90;5.65;;;;;;;4.85;100.00;99879.00;5199064;28;20021;-72
2021/11/02 02:32:16;;;;;;;11.98;5.93;;;;;;;4.89;100.00;99875.06;5200095;28;20397;-72
2021/11/02 02:34:50;;;;;;;17.05;6.07;;;;;;;4.90;100.00;99868.75;5200592;28;20127;-71
2021/11/02 02:37:25;;;;;;;16.10;5.75;;;;;;;4.89;100.00;99876.91;5200045;28;20030;-71
2021/11/02 02:39:57;;;;;;;14.63;6.82;;;;;;;4.90;100.00;99868.75;5199081;28;20017;-71
2021/11/02 02:42:29;;;;;;;14.05;5.47;;;;;;;4.94;100.00;99869.28;5200064;28;20025;-71
2021/11/02 02:45:01;;;;;;;17.85;5.38;;;;;;;4.93;100.00;99864.97;5200496;28;20017;-71
2021/11/02 02:47:33;;;;;;;11.20;5.57;;;;;;;4.97;100.00;99865.47;5200011;28;20051;-71
2021/11/02 02:50:07;;;;;;;14.48;5.68;;;;;;;5.01;100.00;99864.19;5199606;28;20026;-72
2021/11/02 02:52:40;;;;;;;17.27;6.18;;;;;;;5.07;100.00;99860.91;5200182;28;20052;-72
2021/11/02 02:55:13;;;;;;;20.17;6.00;;;;;;;5.16;100.00;99858.16;5199859;28;20025;-71
2021/11/02 02:57:45;;;;;;;12.55;5.82;;;;;;;5.24;100.00;99859.22;5200198;28;20030;-71
2021/11/02 03:00:16;;;;;;;16.73;5.63;;;;;;;5.29;100.00;99849.78;5192005;28;20080;-71
2021/11/02 03:02:50;;;;;;;13.50;5.32;;;;;;;5.37;100.00;99848.97;5193879;28;20017;-72
2021/11/02 03:05:24;;;;;;;12.40;6.18;;;;;;;5.45;100.00;99841.06;5196087;28;20031;-71
2021/11/02 03:07:55;;;;;;;12.57;5.57;;;;;;;5.52;100.00;99839.41;5199699;28;20026;-72
2021/11/02 03:10:26;;;;;;;12.25;5.40;;;;;;;5.50;100.00;99841.41;5201297;28;20090;-72
2021/11/02 03:13:04;;;;;;;14.13;4.97;;;;;;;5.49;100.00;99841.59;5200788;28;20033;-71
2021/11/02 03:44:35;;;;;;;11.98;5.15;;;;;;;5.18;100.00;99839.41;5200538;28;20109;-71
2021/11/02 03:50:12;;;;;;;11.15;5.47;;;;;;;5.07;100.00;99842.28;5205135;28;20528;-71
2021/11/02 03:54:33;;;;;;;10.50;5.00;;;;;;;5.08;100.00;99846.66;5200363;28;20049;-71
2021/11/02 03:55:56;;;;;;;14.00;4.90;;;;;;;5.13;100.00;99847.84;5200255;28;20037;-72
2021/11/02 03:58:46;;;;;;;12.95;4.63;;;;;;;5.17;100.00;99851.00;5199901;28;20611;-71
2021/11/02 04:01:43;;;;;;;12.93;5.50;;;;;;;5.24;100.00;99851.25;5199820;28;20029;-71
2021/11/02 04:24:43;;;;;;;14.25;4.90;;;;;;;5.69;100.00;99854.50;5215053;28;20028;-72
2021/11/02 04:27:12;;;;;;;10.63;4.35;;;;;;;5.73;100.00;99860.34;5199893;28;20036;-72
2021/11/02 04:30:17;;;;;;;10.23;4.55;;;;;;;5.80;100.00;99850.72;5199470;28;20021;-71
2021/11/02 04:35:51;;;;;;;10.05;4.30;;;;;;;5.86;100.00;99846.56;5199675;28;20017;-72
2021/11/02 04:44:39;;;;;;;11.05;4.22;;;;;;;5.80;100.00;99850.72;5199124;28;20257;-71
2021/11/02 05:06:51;;;;;;;11.68;4.88;;;;;;;6.00;100.00;99847.84;5198735;28;21465;-71
2021/11/02 05:46:38;;;;;;;13.90;5.28;;;;;;;6.20;100.00;99854.56;5197792;28;20394;-71
2021/11/02 05:51:44;;;;;;;16.60;6.15;;;;;;;6.29;100.00;99848.25;5198492;28;20025;-71
2021/11/02 05:59:58;;;;;;;13.57;6.00;;;;;;;6.25;100.00;99843.41;5196938;28;20120;-71
2021/11/02 06:02:47;;;;;;;14.80;6.10;;;;;;;6.23;100.00;99844.41;5197602;28;20065;-71
2021/11/02 06:08:32;;;;;;;15.23;6.47;;;;;;;6.25;100.00;99838.91;5197302;28;20336;-71
2021/11/02 06:11:29;;;;;;;17.10;6.00;;;;;;;6.23;100.00;99841.75;5197068;28;20064;-71
2021/11/02 06:28:43;;;;;;;19.83;7.13;;;;;;;6.33;100.00;99838.94;5197669;28;20494;-71
2021/11/02 06:31:19;;;;;;;19.20;7.93;;;;;;;6.34;100.00;99840.59;5196320;28;20053;-71
2021/11/02 06:34:02;;;;;;;19.80;7.97;;;;;;;6.34;100.00;99840.59;5197143;28;20104;-71
2021/11/02 06:53:19;;;;;;;16.48;7.47;;;;;;;6.52;100.00;99856.44;5197322;28;20083;-71
2021/11/02 06:59:15;;;;;;;14.23;6.90;;;;;;;6.60;100.00;99860.97;5196342;28;20183;-71
2021/11/02 07:16:42;;;;;;;19.95;7.00;;;;;;;6.80;100.00;99872.97;5196465;28;20033;-71
2021/11/02 07:19:18;;;;;;;21.40;7.85;;;;;;;6.86;100.00;99872.31;5195577;28;20033;-71
2021/11/02 07:22:03;;;;;;;21.25;7.32;;;;;;;6.88;100.00;99865.00;5211390;28;20033;-71
2021/11/02 07:24:53;;;;;;;16.23;6.70;;;;;;;6.96;100.00;99870.31;5197094;28;20025;-71
2021/11/02 08:48:16;;;;;;;14.50;6.88;;;;;;;8.01;100.00;99895.13;5198907;28;20033;-74
2021/11/02 08:50:54;;;;;;;15.15;7.10;;;;;;;8.04;100.00;99894.81;5198329;28;20029;-75
2021/11/02 08:53:27;;;;;;;16.95;7.88;;;;;;;8.05;100.00;99893.78;5197779;28;20030;-74
2021/11/02 08:55:58;;;;;;;11.43;5.95;;;;;;;8.03;100.00;99895.81;5200072;28;20478;-74
2021/11/02 08:58:31;;;;;;;14.68;7.22;;;;;;;8.05;100.00;99884.94;5199175;28;20033;-75
2021/11/02 09:01:02;;;;;;;12.50;7.18;;;;;;;8.09;100.00;99888.13;5197638;28;20021;-75
2021/11/02 09:03:34;;;;;;;14.27;6.57;;;;;;;8.14;100.00;99883.91;5198590;28;20026;-75
2021/11/02 09:06:08;;;;;;;14.77;7.10;;;;;;;8.18;100.00;99887.91;5199203;28;20183;-75
2021/11/02 09:08:41;;;;;;;13.38;6.28;;;;;;;8.22;100.00;99885.69;5192759;28;20108;-75
2021/11/02 09:11:14;;;;;;;12.65;6.82;;;;;;;8.20;100.00;99890.41;5198528;28;20096;-75
2021/11/02 09:13:47;;;;;;;18.60;7.35;;;;;;;8.30;100.00;99889.16;5198252;28;20029;-75
2021/11/02 09:16:20;;;;;;;14.82;7.07;;;;;;;8.30;100.00;99893.69;5198705;28;20021;-76
2021/11/02 09:18:52;;;;;;;10.88;6.95;;;;;;;8.25;100.00;99888.88;5198120;28;20091;-75
2021/11/02 09:21:23;;;;;;;17.80;7.28;;;;;;;8.24;100.00;99891.72;5198465;28;20053;-74
2021/11/02 09:23:54;;;;;;;19.75;8.05;;;;;;;8.18;100.00;99892.41;5198455;28;20049;-75
2021/11/02 09:26:26;;;;;;;16.08;7.20;;;;;;;8.22;100.00;99891.03;5197893;28;20029;-75
2021/11/02 09:29:02;;;;;;;22.65;7.80;;;;;;;8.24;100.00;99897.06;5197484;28;20409;-75
2021/11/02 09:31:36;;;;;;;17.95;9.43;;;;;;;8.29;100.00;99897.38;5198605;28;20261;-76
2021/11/02 09:34:06;;;;;;;18.30;7.53;;;;;;;8.37;100.00;99900.00;5197711;28;20025;-76
2021/11/02 09:36:44;;;;;;;16.27;9.18;;;;;;;8.42;100.00;99896.81;5198554;28;20021;-75
2021/11/02 09:39:19;;;;;;;16.85;8.20;;;;;;;8.49;100.00;99898.63;5197422;28;20112;-75
2021/11/02 09:42:28;;;;;;;21.45;8.48;;;;;;;8.60;100.00;99896.56;5198588;28;20029;-75
2021/11/02 09:45:02;;;;;;;18.35;7.30;;;;;;;8.68;100.00;99904.53;5197861;28;20104;-75
2021/11/02 09:47:54;;;;;;;12.75;7.00;;;;;;;8.70;100.00;99899.84;5198201;28;20025;-74
2021/11/02 09:51:13;;;;;;;15.45;7.30;;;;;;;8.87;100.00;99901.38;5197503;28;20028;-74
2021/11/02 09:53:46;;;;;;;15.05;6.85;;;;;;;8.90;100.00;99900.22;5197591;28;20037;-75
2021/11/02 09:56:30;;;;;;;15.77;6.65;;;;;;;8.84;100.00;99899.09;5197923;28;20084;-76
2021/11/02 09:59:04;;;;;;;14.82;6.43;;;;;;;8.97;100.00;99895.81;5197400;28;20029;-75
2021/11/02 10:02:12;;;;;;;12.43;6.13;;;;;;;8.96;100.00;99900.31;5197863;28;20065;-75
2021/11/02 10:04:56;;;;;;;15.57;7.80;;;;;;;8.95;100.00;99892.47;5197428;28;20434;-75
2021/11/02 10:07:42;;;;;;;13.27;6.57;;;;;;;8.87;100.00;99889.84;5197948;28;20708;-76
2021/11/02 10:10:17;;;;;;;15.15;6.45;;;;;;;8.76;100.00;99891.94;5191884;28;20032;-75
2021/11/02 10:13:02;;;;;;;23.98;6.35;;;;;;;8.73;100.00;99902.97;5212554;28;20033;-75
2021/11/02 10:16:01;;;;;;;14.27;6.05;;;;;;;8.70;100.00;99891.81;5196807;28;20021;-75
2021/11/02 10:18:44;;;;;;;15.65;6.32;;;;;;;8.68;100.00;99888.47;5196970;28;20691;-75
2021/11/02 10:21:36;;;;;;;14.00;6.10;;;;;;;8.66;100.00;99882.47;5197238;28;20075;-75
2021/11/02 10:24:41;;;;;;;16.55;5.63;;;;;;;8.63;100.00;99885.50;5197292;28;20113;-75
2021/11/02 10:27:25;;;;;;;12.27;6.18;;;;;;;8.51;100.00;99893.94;5197420;28;20033;-74
2021/11/02 10:30:09;;;;;;;14.13;5.78;;;;;;;8.52;100.00;99889.41;5196638;28;20021;-74
2021/11/02 10:32:43;;;;;;;18.45;8.75;;;;;;;8.47;100.00;99892.59;5197366;28;20037;-75
2021/11/02 10:35:20;;;;;;;12.60;6.78;;;;;;;8.39;100.00;99898.03;5196280;28;20033;-75
2021/11/02 10:37:56;;;;;;;13.52;6.80;;;;;;;8.26;100.00;99897.72;5197019;28;20894;-75
2021/11/02 10:40:41;;;;;;;14.88;8.80;;;;;;;8.16;100.00;99894.41;5196340;28;20030;-75
2021/11/02 10:43:24;;;;;;;37.25;16.40;;;;;;;8.09;100.00;99901.47;5195488;28;20029;-74
2021/11/02 10:46:02;;;;;;;22.95;14.60;;;;;;;8.13;100.00;99892.91;5196881;28;20409;-75
2021/11/02 10:48:38;;;;;;;46.97;29.80;;;;;;;8.26;100.00;99897.72;5196766;28;20040;-75
2021/11/02 10:51:41;;;;;;;20.50;8.80;;;;;;;8.40;100.00;99899.69;5196196;28;20549;-74
2021/11/02 10:54:19;;;;;;;14.82;7.70;;;;;;;8.43;100.00;99901.97;5196720;28;20030;-75
2021/11/02 10:57:05;;;;;;;21.45;9.18;;;;;;;8.71;100.00;99896.97;5196919;28;20029;-75
2021/11/02 10:59:41;;;;;;;18.88;8.73;;;;;;;8.96;100.00;99902.16;5196218;28;20406;-74
2021/11/02 11:02:20;;;;;;;;;;;;;;;8.97;100.00;99896.63;5196812;28;20474;-74
2021/11/02 11:04:55;;;;;;;11.13;5.90;;;;;;;9.13;100.00;99898.34;5207738;28;20101;-74
2021/11/02 11:07:28;;;;;;;11.63;5.43;;;;;;;9.14;100.00;99915.25;5196305;28;20517;-75
2021/11/02 11:09:58;;;;;;;11.18;4.93;;;;;;;9.15;100.00;99907.03;5195884;28;20027;-74
2021/11/02 11:12:33;;;;;;;11.02;5.63;;;;;;;9.10;100.00;99908.59;5196568;28;20506;-74
2021/11/02 11:15:06;;;;;;;12.50;6.15;;;;;;;9.38;100.00;99903.47;5196416;28;20490;-75
2021/11/02 11:17:45;;;;;;;161.48;73.00;;;;;;;9.76;100.00;99897.06;5196852;28;20413;-74
2021/11/02 11:20:17;;;;;;;10.02;6.40;;;;;;;9.88;100.00;99892.09;5196266;28;20477;-75
2021/11/02 11:22:49;;;;;;;10.32;6.18;;;;;;;10.06;100.00;99899.75;5196385;28;20371;-74
2021/11/02 11:25:26;;;;;;;17.05;12.50;;;;;;;10.09;100.00;99902.03;5196303;28;20048;-75
2021/11/02 11:27:58;;;;;;;23.23;18.30;;;;;;;10.05;100.00;99898.09;5198042;28;20052;-75
2021/11/02 11:30:38;;;;;;;7.75;4.80;;;;;;;9.74;100.00;99900.94;5200036;28;20021;-74
2021/11/02 11:33:12;;;;;;;7.72;4.50;;;;;;;9.58;100.00;99902.78;5200467;28;20113;-74
2021/11/02 11:35:43;;;;;;;9.55;4.65;;;;;;;9.44;100.00;99903.59;5200331;28;20603;-73
2021/11/02 11:38:15;;;;;;;7.22;3.83;;;;;;;9.39;100.00;99910.50;5200451;28;20048;-75
2021/11/02 11:40:46;;;;;;;7.43;4.60;;;;;;;9.47;100.00;99913.09;5199584;28;20302;-75
2021/11/02 11:43:16;;;;;;;8.25;4.30;;;;;;;9.60;100.00;99916.00;5200874;28;20709;-75
2021/11/02 11:45:52;;;;;;;9.57;4.25;;;;;;;9.59;100.00;99911.66;5198371;28;20029;-75
2021/11/02 11:48:24;;;;;;;6.40;4.10;;;;;;;9.60;100.00;99905.28;5200787;28;20584;-75
2021/11/02 11:50:58;;;;;;;10.40;5.18;;;;;;;9.68;100.00;99921.25;5199258;28;20064;-75
2021/11/02 11:53:30;;;;;;;5.05;3.85;;;;;;;9.71;100.00;99912.03;5200116;28;20086;-74
2021/11/02 11:56:04;;;;;;;5.82;3.83;;;;;;;9.78;100.00;99910.28;5200115;28;20101;-75
2021/11/02 11:58:45;;;;;;;12.70;4.20;;;;;;;9.76;100.00;99909.63;5199599;28;20705;-76
2021/11/02 12:01:29;;;;;;;5.43;3.95;;;;;;;9.66;100.00;99906.41;5199671;28;20138;-74
2021/11/02 12:04:20;;;;;;;19.05;11.43;;;;;;;9.54;100.00;99903.34;5200346;28;20029;-74
2021/11/02 12:07:04;;;;;;;7.55;4.50;;;;;;;9.58;100.00;99912.66;5199195;28;20094;-76
2021/11/02 12:09:44;;;;;;;24.35;10.35;;;;;;;9.71;100.00;99909.38;5199924;28;20029;-75
2021/11/02 12:12:15;;;;;;;7.88;5.10;;;;;;;9.93;100.00;99905.75;5199944;28;20053;-76
2021/11/02 12:14:53;;;;;;;8.80;6.78;;;;;;;10.09;100.00;99908.25;5200228;28;20032;-76
2021/11/02 12:17:24;;;;;;;8.05;6.32;;;;;;;10.15;100.00;99911.22;5199778;28;20041;-76
2021/11/02 12:20:03;;;;;;;8.13;4.20;;;;;;;10.29;100.00;99908.56;5199208;28;20482;-75
2021/11/02 12:22:42;;;;;;;6.07;3.33;;;;;;;10.19;100.00;99907.13;5198004;28;20108;-75
2021/11/02 12:25:22;;;;;;;5.78;3.67;;;;;;;10.12;100.00;99905.19;5216823;28;20093;-76
2021/11/02 12:27:53;;;;;;;5.53;3.20;;;;;;;9.98;100.00;99914.06;5201253;28;20036;-76
2021/11/02 12:30:25;;;;;;;6.80;3.50;;;;;;;9.99;100.00;99915.75;5201554;28;20025;-75
2021/11/02 12:32:57;;;;;;;5.25;3.53;;;;;;;9.86;100.00;99919.06;5201800;28;20371;-77
2021/11/02 12:35:34;;;;;;;6.82;2.90;;;;;;;9.76;100.00;99926.53;5202192;28;20125;-76
2021/11/02 12:38:06;;;;;;;4.22;3.00;;;;;;;9.71;100.00;99920.91;5201250;28;20049;-77
2021/11/02 12:40:39;;;;;;;5.90;3.75;;;;;;;9.66;100.00;99925.16;5201508;28;20494;-76
2021/11/02 12:43:29;;;;;;;30.40;11.88;;;;;;;9.72;100.00;99925.25;5201469;28;20218;-76
2021/11/02 12:46:01;;;;;;;7.97;4.70;;;;;;;9.65;100.00;99931.53;5201567;28;20152;-76
2021/11/02 12:48:33;;;;;;;12.35;7.55;;;;;;;9.62;100.00;99927.34;5202986;28;20106;-75
2021/11/02 12:51:06;;;;;;;6.40;3.42;;;;;;;9.62;100.00;99923.84;5199061;28;20438;-75
2021/11/02 12:53:39;;;;;;;5.07;3.55;;;;;;;9.65;100.00;99926.16;5197837;28;20549;-76
2021/11/02 12:56:19;;;;;;;8.23;3.25;;;;;;;9.65;100.00;99920.81;5181949;28;20163;-76
2021/11/02 12:59:00;;;;;;;5.07;2.40;;;;;;;9.63;100.00;99923.66;5200806;28;20052;-75
2021/11/02 13:01:34;;;;;;;6.20;2.92;;;;;;;9.62;100.00;99927.34;5201351;28;20029;-75
2021/11/02 13:04:08;;;;;;;4.18;2.80;;;;;;;9.54;100.00;99936.31;5201556;28;20036;-76
2021/11/02 13:06:46;;;;;;;4.72;2.58;;;;;;;9.51;100.00;99936.66;5201170;28;20120;-75
2021/11/02 13:09:19;;;;;;;6.22;2.85;;;;;;;9.51;100.00;99928.63;5200104;28;20049;-76
2021/11/02 13:12:04;;;;;;;5.55;2.42;;;;;;;9.46;100.00;99932.88;5201130;28;20257;-75
2021/11/02 13:14:39;;;;;;;7.43;3.00;;;;;;;9.36;100.00;99932.28;5200877;28;20033;-76
2021/11/02 13:17:12;;;;;;;5.30;2.80;;;;;;;9.27;100.00;99940.38;5200958;28;20029;-76
2021/11/02 13:19:46;;;;;;;4.20;2.75;;;;;;;9.13;100.00;99943.81;5199765;28;20027;-76
2021/11/02 13:22:19;;;;;;;7.30;2.47;;;;;;;9.00;100.00;99936.41;5200643;28;20035;-76
2021/11/02 13:25:10;;;;;;;4.13;2.60;;;;;;;8.93;100.00;99943.47;5200500;28;20029;-75
2021/11/02 13:27:43;;;;;;;8.40;4.25;;;;;;;8.75;100.00;99938.41;5200703;28;20025;-76
2021/11/02 13:30:31;;;;;;;4.05;2.72;;;;;;;8.74;100.00;99944.78;5191660;28;20033;-75
2021/11/02 13:33:05;;;;;;;4.90;2.60;;;;;;;8.69;100.00;99939.13;5196694;28;20507;-76
2021/11/02 13:35:47;;;;;;;4.20;2.55;;;;;;;8.72;100.00;99940.59;5200530;28;20017;-78
2021/11/02 13:38:35;;;;;;;3.55;2.20;;;;;;;8.77;100.00;99940.91;5199842;28;20048;-76
2021/11/02 13:41:18;;;;;;;2.97;2.00;;;;;;;8.74;100.00;99942.09;5199918;28;20037;-76
2021/11/02 13:43:53;;;;;;;2.97;2.17;;;;;;;8.76;100.00;99932.03;5200546;28;20375;-77
2021/11/02 13:46:26;;;;;;;7.67;2.53;;;;;;;8.72;100.00;99949.44;5199778;28;20033;-76
2021/11/02 13:48:57;;;;;;;7.38;3.40;;;;;;;8.69;100.00;99955.16;5199603;28;20280;-76
2021/11/02 13:51:28;;;;;;;4.35;2.80;;;;;;;8.69;100.00;99949.00;5199397;28;20088;-76
2021/11/02 13:54:00;;;;;;;8.05;4.07;;;;;;;8.76;100.00;99948.09;5199948;28;20513;-76
2021/11/02 13:56:35;;;;;;;8.73;3.58;;;;;;;8.75;100.00;99946.44;5187265;28;20124;-74
2021/11/02 13:59:07;;;;;;;8.10;4.13;;;;;;;8.77;100.00;99938.22;5195543;28;20028;-76
2021/11/02 14:01:48;;;;;;;7.88;2.80;;;;;;;8.88;100.00;99950.34;5198570;28;20508;-76
2021/11/02 14:04:23;;;;;;;4.80;3.03;;;;;;;8.91;100.00;99942.81;5199430;28;20061;-76
2021/11/02 14:07:03;;;;;;;7.30;2.90;;;;;;;9.00;100.00;99949.78;5199666;28;20140;-76
2021/11/02 14:09:38;;;;;;;6.35;2.88;;;;;;;9.08;100.00;99952.38;5190816;28;20029;-76
2021/11/02 14:12:25;;;;;;;9.43;3.47;;;;;;;9.15;100.00;99949.03;5199855;28;20030;-76
2021/11/02 14:15:10;;;;;;;11.73;3.75;;;;;;;9.22;100.00;99948.09;5199353;28;20033;-76
2021/11/02 14:17:42;;;;;;;7.93;3.58;;;;;;;9.35;100.00;99947.53;5199833;28;20029;-76
2021/11/02 14:20:40;;;;;;;12.43;3.83;;;;;;;9.52;100.00;99948.19;5198633;28;20132;-76
2021/11/02 14:23:33;;;;;;;8.40;3.75;;;;;;;9.81;100.00;99948.25;5199626;28;20498;-76
2021/11/02 14:26:23;;;;;;;11.55;7.15;;;;;;;9.97;100.00;99947.25;5193141;28;20030;-76
2021/11/02 14:29:00;;;;;;;12.80;5.95;;;;;;;10.05;100.00;99944.47;5199062;28;20734;-76
2021/11/02 14:31:34;;;;;;;8.43;4.13;;;;;;;10.00;100.00;99946.06;5199290;28;20025;-76
2021/11/02 14:34:06;;;;;;;7.95;4.40;;;;;;;9.97;100.00;99944.56;5199053;28;20071;-76
2021/11/02 14:36:38;;;;;;;8.52;5.75;;;;;;;9.98;100.00;99945.38;5198572;28;20254;-76
2021/11/02 14:39:11;;;;;;;12.40;5.57;;;;;;;9.82;100.00;99951.75;5198639;28;20186;-76
2021/11/02 14:41:47;;;;;;;12.18;4.78;;;;;;;9.72;100.00;99954.69;5198726;28;20026;-76
2021/11/02 14:44:18;;;;;;;14.30;5.68;;;;;;;9.62;100.00;99967.50;5199372;28;20083;-75
2021/11/02 14:46:50;;;;;;;15.02;5.60;;;;;;;9.59;100.00;99960.69;5200189;28;20646;-76
2021/11/02 14:49:27;;;;;;;13.55;5.72;;;;;;;9.68;100.00;99963.28;5199009;28;20737;-76
2021/11/02 14:52:00;;;;;;;8.02;4.15;;;;;;;9.71;100.00;99966.44;5199416;28;20498;-76
2021/11/02 14:54:42;;;;;;;11.90;5.97;;;;;;;9.73;100.00;99961.72;5199246;28;20568;-76
2021/11/02 14:57:18;;;;;;;9.15;4.05;;;;;;;9.71;100.00;99960.25;5196784;28;20022;-76
2021/11/02 14:59:55;;;;;;;7.72;4.32;;;;;;;9.66;100.00;99960.78;5198678;28;20109;-76
2021/11/02 15:02:39;;;;;;;7.13;4.50;;;;;;;9.66;100.00;99960.78;5203274;28;20025;-76
2021/11/02 15:05:13;;;;;;;10.00;5.50;;;;;;;9.60;100.00;99954.31;5206143;28;20029;-75
2021/11/02 15:07:45;;;;;;;9.88;4.30;;;;;;;9.55;100.00;99955.88;5212846;28;20433;-75
2021/11/02 15:10:18;;;;;;;9.15;5.10;;;;;;;9.51;100.00;99954.56;5209493;28;20025;-76
2021/11/02 15:12:49;;;;;;;11.50;5.32;;;;;;;9.48;100.00;99955.75;5205700;28;20374;-76
2021/11/02 15:15:20;;;;;;;8.98;5.00;;;;;;;9.45;100.00;99957.97;5205050;28;20033;-76
2021/11/02 15:18:04;;;;;;;13.50;5.18;;;;;;;9.42;100.00;99956.47;5205795;28;20033;-76
2021/11/02 15:20:35;;;;;;;11.55;6.25;;;;;;;9.36;100.00;99962.56;5204799;28;20029;-76
2021/11/02 15:23:05;;;;;;;16.50;6.30;;;;;;;9.27;100.00;99960.97;5205234;28;20029;-76
2021/11/02 15:25:36;;;;;;;15.80;5.80;;;;;;;9.22;100.00;99963.34;5205238;28;20390;-76
2021/11/02 15:28:08;;;;;;;15.70;6.22;;;;;;;9.12;100.00;99952.88;5205313;28;20026;-77
2021/11/02 15:30:39;;;;;;;12.95;6.00;;;;;;;9.01;100.00;99958.66;5205255;28;20021;-74
2021/11/02 15:33:09;;;;;;;14.43;6.28;;;;;;;8.91;100.00;99953.53;5204544;28;20026;-74
2021/11/02 15:35:40;;;;;;;19.15;7.32;;;;;;;8.82;100.00;99963.44;5205061;28;20036;-74
2021/11/02 15:38:10;;;;;;;26.80;8.77;;;;;;;8.73;100.00;99953.78;5205627;28;20700;-74
2021/11/02 15:40:40;;;;;;;26.08;9.05;;;;;;;8.64;100.00;99948.69;5205577;28;20497;-74
2021/11/02 15:43:13;;;;;;;31.92;10.05;;;;;;;8.53;100.00;99955.22;5205266;28;20108;-74
2021/11/02 15:45:48;;;;;;;26.25;9.88;;;;;;;8.42;100.00;99956.44;5204521;28;20124;-74
2021/11/02 15:48:22;;;;;;;;;;;;;;;8.30;100.00;99950.63;5205937;28;20025;-76
2021/11/02 15:50:54;;;;;;;28.13;10.52;;;;;;;8.19;100.00;99955.53;5204581;28;20396;-76
2021/11/02 15:53:28;;;;;;;42.13;14.30;;;;;;;8.10;100.00;99953.88;5205121;28;20032;-76
2021/11/02 15:56:01;;;;;;;34.78;13.70;;;;;;;8.00;100.00;99968.28;5204582;28;20700;-77
2021/11/02 15:58:33;;;;;;;42.75;13.73;;;;;;;7.89;100.00;99960.63;5204831;28;20029;-75
2021/11/02 16:01:04;;;;;;;36.97;15.02;;;;;;;7.78;100.00;99960.97;5204805;28;20024;-74
2021/11/02 16:03:36;;;;;;;35.90;13.25;;;;;;;7.66;100.00;99970.34;5204972;28;20033;-74
2021/11/02 16:06:07;;;;;;;40.00;14.18;;;;;;;7.53;100.00;99968.19;5204280;28;20029;-75
2021/11/02 16:08:37;;;;;;;27.60;12.23;;;;;;;7.41;100.00;99965.00;5204522;28;20025;-75
2021/11/02 16:11:10;;;;;;;32.20;13.23;;;;;;;7.30;100.00;99970.69;5203405;28;20099;-75
2021/11/02 16:13:41;;;;;;;35.30;12.38;;;;;;;7.19;100.00;99979.03;5202826;28;20014;-77
2021/11/02 16:16:12;;;;;;;25.42;13.43;;;;;;;7.09;100.00;99973.84;5201577;28;20070;-75
2021/11/02 16:18:43;;;;;;;27.30;13.05;;;;;;;6.99;100.00;99979.31;5201324;28;20104;-74
2021/11/02 16:21:13;;;;;;;25.67;11.85;;;;;;;6.88;100.00;99971.66;5201420;28;20036;-75
2021/11/02 16:23:46;;;;;;;26.75;12.63;;;;;;;6.80;100.00;99974.28;5202043;28;20588;-75
2021/11/02 16:26:21;;;;;;;24.02;12.43;;;;;;;6.70;100.00;99970.94;5201156;28;20025;-75
2021/11/02 16:28:58;;;;;;;31.73;13.35;;;;;;;6.56;100.00;99969.72;5201181;28;20071;-75